sensor_id;sensor_type;location;lat;lon;timestamp;temperature;humidity
15341;DHT22;7770;52.158;5.372;2024-01-15T00:02:26;1.00;99.90
15341;DHT22;7770;52.158;5.372;2024-01-15T00:05:12;1.00;99.90
15341;DHT22;7770;52.158;5.372;2024-01-15T00:07:58;0.90;99.90
15341;DHT22;7770;52.158;5.372;2024-01-15T00:10:44;0.90;99.90
15341;DHT22;7770;52.158;5.372;2024-01-15T00:13:30;0.90;99.90
15341;DHT22;7770;52.158;5.372;2024-01-15T00:16:16;0.90;99.90
15341;DHT22;7770;52.158;5.372;2024-01-15T00:19:02;0.90;99.90
15341;DHT22;7770;52.158;5.372;2024-01-15T00:21:48;0.90;99.90
15341;DHT22;7770;52.158;5.372;2024-01-15T00:24:34;0.90;99.90
15341;DHT22;7770;52.158;5.372;2024-01-15T00:27:21;0.90;99.90
15341;DHT22;7770;52.158;5.372;2024-01-15T00:30:07;0.80;99.90
15341;DHT22;7770;52.158;5.372;2024-01-15T00:32:53;0.80;99.90
15341;DHT22;7770;52.158;5.372;2024-01-15T00:35:39;0.80;99.90
15341;DHT22;7770;52.158;5.372;2024-01-15T00:38:25;0.70;99.90
15341;DHT22;7770;52.158;5.372;2024-01-15T00:41:11;0.70;99.90
15341;DHT22;7770;52.158;5.372;2024-01-15T00:43:57;0.70;99.90
15341;DHT22;7770;52.158;5.372;2024-01-15T00:46:44;0.70;99.90
15341;DHT22;7770;52.158;5.372;2024-01-15T00:49:31;0.60;99.90
15341;DHT22;7770;52.158;5.372;2024-01-15T00:52:17;0.60;99.90
15341;DHT22;7770;52.158;5.372;2024-01-15T00:55:03;0.50;99.90
15341;DHT22;7770;52.158;5.372;2024-01-15T00:57:50;0.60;99.90
15341;DHT22;7770;52.158;5.372;2024-01-15T01:00:36;0.50;99.90
15341;DHT22;7770;52.158;5.372;2024-01-15T01:03:22;0.50;99.90
15341;DHT22;7770;52.158;5.372;2024-01-15T01:06:08;0.50;99.90
15341;DHT22;7770;52.158;5.372;2024-01-15T01:08:53;0.50;99.90
15341;DHT22;7770;52.158;5.372;2024-01-15T01:11:39;0.40;99.90
15341;DHT22;7770;52.158;5.372;2024-01-15T01:14:25;0.40;99.90
15341;DHT22;7770;52.158;5.372;2024-01-15T01:17:11;0.40;99.90
15341;DHT22;7770;52.158;5.372;2024-01-15T01:19:57;0.50;99.90
15341;DHT22;7770;52.158;5.372;2024-01-15T01:22:43;0.60;99.90
15341;DHT22;7770;52.158;5.372;2024-01-15T01:25:29;0.60;99.90
15341;DHT22;7770;52.158;5.372;2024-01-15T01:28:15;0.70;99.90
15341;DHT22;7770;52.158;5.372;2024-01-15T01:31:02;0.60;99.90
15341;DHT22;7770;52.158;5.372;2024-01-15T01:33:48;0.60;99.90
15341;DHT22;7770;52.158;5.372;2024-01-15T01:36:34;0.60;99.90
15341;DHT22;7770;52.158;5.372;2024-01-15T01:39:20;0.50;99.90
15341;DHT22;7770;52.158;5.372;2024-01-15T01:42:06;0.40;99.90
15341;DHT22;7770;52.158;5.372;2024-01-15T01:44:52;0.40;99.90
15341;DHT22;7770;52.158;5.372;2024-01-15T01:47:38;0.30;99.90
15341;DHT22;7770;52.158;5.372;2024-01-15T01:50:24;0.30;99.90
15341;DHT22;7770;52.158;5.372;2024-01-15T01:53:10;0.30;99.90
15341;DHT22;7770;52.158;5.372;2024-01-15T01:55:57;0.30;99.90
15341;DHT22;7770;52.158;5.372;2024-01-15T01:58:46;0.30;99.90
15341;DHT22;7770;52.158;5.372;2024-01-15T02:01:33;0.40;99.90
15341;DHT22;7770;52.158;5.372;2024-01-15T02:04:19;0.50;99.90
15341;DHT22;7770;52.158;5.372;2024-01-15T02:07:05;0.70;99.90
15341;DHT22;7770;52.158;5.372;2024-01-15T02:09:51;1.00;99.90
15341;DHT22;7770;52.158;5.372;2024-01-15T02:12:38;1.20;99.90
15341;DHT22;7770;52.158;5.372;2024-01-15T02:15:24;1.50;99.90
15341;DHT22;7770;52.158;5.372;2024-01-15T02:18:10;1.60;99.90
15341;DHT22;7770;52.158;5.372;2024-01-15T02:20:56;1.70;99.90
15341;DHT22;7770;52.158;5.372;2024-01-15T02:23:42;1.70;99.90
15341;DHT22;7770;52.158;5.372;2024-01-15T02:26:28;1.70;99.90
15341;DHT22;7770;52.158;5.372;2024-01-15T02:29:15;1.50;99.90
15341;DHT22;7770;52.158;5.372;2024-01-15T02:32:04;1.50;99.90
15341;DHT22;7770;52.158;5.372;2024-01-15T02:34:51;1.40;99.90
15341;DHT22;7770;52.158;5.372;2024-01-15T02:37:37;1.40;99.90
15341;DHT22;7770;52.158;5.372;2024-01-15T02:40:23;1.40;99.90
15341;DHT22;7770;52.158;5.372;2024-01-15T02:43:09;1.40;99.90
15341;DHT22;7770;52.158;5.372;2024-01-15T02:45:55;1.40;99.90
15341;DHT22;7770;52.158;5.372;2024-01-15T02:48:41;1.40;99.90
15341;DHT22;7770;52.158;5.372;2024-01-15T02:51:27;1.40;99.90
15341;DHT22;7770;52.158;5.372;2024-01-15T02:54:13;1.40;99.90
15341;DHT22;7770;52.158;5.372;2024-01-15T02:56:59;1.40;99.90
15341;DHT22;7770;52.158;5.372;2024-01-15T02:59:45;1.40;99.90
15341;DHT22;7770;52.158;5.372;2024-01-15T03:02:31;1.50;99.90
15341;DHT22;7770;52.158;5.372;2024-01-15T03:05:17;1.40;99.90
15341;DHT22;7770;52.158;5.372;2024-01-15T03:08:04;1.40;99.90
15341;DHT22;7770;52.158;5.372;2024-01-15T03:10:50;1.40;99.90
15341;DHT22;7770;52.158;5.372;2024-01-15T03:13:36;1.40;99.90
15341;DHT22;7770;52.158;5.372;2024-01-15T03:16:22;1.40;99.90
15341;DHT22;7770;52.158;5.372;2024-01-15T03:19:08;1.40;99.90
15341;DHT22;7770;52.158;5.372;2024-01-15T03:21:54;1.30;99.90
15341;DHT22;7770;52.158;5.372;2024-01-15T03:24:41;1.30;99.90
15341;DHT22;7770;52.158;5.372;2024-01-15T03:27:27;1.20;99.90
15341;DHT22;7770;52.158;5.372;2024-01-15T03:30:13;1.20;99.90
15341;DHT22;7770;52.158;5.372;2024-01-15T03:32:59;1.20;99.90
15341;DHT22;7770;52.158;5.372;2024-01-15T03:35:45;1.30;99.90
15341;DHT22;7770;52.158;5.372;2024-01-15T03:38:31;1.30;99.90
15341;DHT22;7770;52.158;5.372;2024-01-15T03:41:17;1.50;99.90
15341;DHT22;7770;52.158;5.372;2024-01-15T03:44:03;1.60;99.90
15341;DHT22;7770;52.158;5.372;2024-01-15T03:46:50;1.60;99.90
15341;DHT22;7770;52.158;5.372;2024-01-15T03:49:36;1.60;99.90
15341;DHT22;7770;52.158;5.372;2024-01-15T03:52:22;1.70;99.90
15341;DHT22;7770;52.158;5.372;2024-01-15T03:55:08;1.70;99.90
15341;DHT22;7770;52.158;5.372;2024-01-15T03:57:54;1.60;99.90
15341;DHT22;7770;52.158;5.372;2024-01-15T04:00:40;1.40;99.90
15341;DHT22;7770;52.158;5.372;2024-01-15T04:03:26;1.30;99.90
15341;DHT22;7770;52.158;5.372;2024-01-15T04:06:12;1.10;99.90
15341;DHT22;7770;52.158;5.372;2024-01-15T04:08:58;0.90;99.90
15341;DHT22;7770;52.158;5.372;2024-01-15T04:11:44;0.90;99.90
15341;DHT22;7770;52.158;5.372;2024-01-15T04:14:30;0.80;99.90
15341;DHT22;7770;52.158;5.372;2024-01-15T04:17:16;0.70;99.90
15341;DHT22;7770;52.158;5.372;2024-01-15T04:20:03;0.70;99.90
15341;DHT22;7770;52.158;5.372;2024-01-15T04:22:50;0.60;99.90
15341;DHT22;7770;52.158;5.372;2024-01-15T04:25:36;0.60;99.90
15341;DHT22;7770;52.158;5.372;2024-01-15T04:28:22;0.60;99.90
15341;DHT22;7770;52.158;5.372;2024-01-15T04:31:08;0.60;99.90
15341;DHT22;7770;52.158;5.372;2024-01-15T04:33:54;0.60;99.90
15341;DHT22;7770;52.158;5.372;2024-01-15T04:36:40;0.70;99.90
15341;DHT22;7770;52.158;5.372;2024-01-15T04:39:27;0.70;99.90
15341;DHT22;7770;52.158;5.372;2024-01-15T04:42:13;0.70;99.90
15341;DHT22;7770;52.158;5.372;2024-01-15T04:44:59;0.80;99.90
15341;DHT22;7770;52.158;5.372;2024-01-15T04:47:45;0.80;99.90
15341;DHT22;7770;52.158;5.372;2024-01-15T04:50:31;0.90;99.90
15341;DHT22;7770;52.158;5.372;2024-01-15T04:53:17;0.90;99.90
15341;DHT22;7770;52.158;5.372;2024-01-15T04:56:03;1.00;99.90
15341;DHT22;7770;52.158;5.372;2024-01-15T04:58:49;1.10;99.90
15341;DHT22;7770;52.158;5.372;2024-01-15T05:01:35;1.20;99.90
15341;DHT22;7770;52.158;5.372;2024-01-15T05:04:21;1.30;99.90
15341;DHT22;7770;52.158;5.372;2024-01-15T05:07:07;1.30;99.90
15341;DHT22;7770;52.158;5.372;2024-01-15T05:09:54;1.30;99.90
15341;DHT22;7770;52.158;5.372;2024-01-15T05:12:40;1.30;99.90
15341;DHT22;7770;52.158;5.372;2024-01-15T05:15:26;1.30;99.90
15341;DHT22;7770;52.158;5.372;2024-01-15T05:18:12;1.30;99.90
15341;DHT22;7770;52.158;5.372;2024-01-15T05:20:58;1.30;99.90
15341;DHT22;7770;52.158;5.372;2024-01-15T05:23:44;1.30;99.90
15341;DHT22;7770;52.158;5.372;2024-01-15T05:26:30;1.30;99.90
15341;DHT22;7770;52.158;5.372;2024-01-15T05:29:16;1.30;99.90
15341;DHT22;7770;52.158;5.372;2024-01-15T05:32:02;1.30;99.90
15341;DHT22;7770;52.158;5.372;2024-01-15T05:34:48;1.30;99.90
15341;DHT22;7770;52.158;5.372;2024-01-15T05:37:34;1.40;99.90
15341;DHT22;7770;52.158;5.372;2024-01-15T05:40:20;1.40;99.90
15341;DHT22;7770;52.158;5.372;2024-01-15T05:43:06;1.40;99.90
15341;DHT22;7770;52.158;5.372;2024-01-15T05:45:52;1.40;99.90
15341;DHT22;7770;52.158;5.372;2024-01-15T05:48:38;1.50;99.90
15341;DHT22;7770;52.158;5.372;2024-01-15T05:51:24;1.50;99.90
15341;DHT22;7770;52.158;5.372;2024-01-15T05:54:10;1.50;99.90
15341;DHT22;7770;52.158;5.372;2024-01-15T05:56:56;1.60;99.90
15341;DHT22;7770;52.158;5.372;2024-01-15T05:59:44;1.60;99.90
15341;DHT22;7770;52.158;5.372;2024-01-15T06:02:30;1.60;99.90
15341;DHT22;7770;52.158;5.372;2024-01-15T06:05:16;1.60;99.90
15341;DHT22;7770;52.158;5.372;2024-01-15T06:08:02;1.60;99.90
15341;DHT22;7770;52.158;5.372;2024-01-15T06:10:48;1.70;99.90
15341;DHT22;7770;52.158;5.372;2024-01-15T06:13:34;1.60;99.90
15341;DHT22;7770;52.158;5.372;2024-01-15T06:16:20;1.50;99.90
15341;DHT22;7770;52.158;5.372;2024-01-15T06:19:07;1.40;99.90
15341;DHT22;7770;52.158;5.372;2024-01-15T06:21:53;1.30;99.90
15341;DHT22;7770;52.158;5.372;2024-01-15T06:24:39;1.30;99.90
15341;DHT22;7770;52.158;5.372;2024-01-15T06:27:25;1.30;99.90
15341;DHT22;7770;52.158;5.372;2024-01-15T06:30:11;1.20;99.90
15341;DHT22;7770;52.158;5.372;2024-01-15T06:32:57;1.20;99.90
15341;DHT22;7770;52.158;5.372;2024-01-15T06:35:43;1.20;99.90
15341;DHT22;7770;52.158;5.372;2024-01-15T06:38:29;1.20;99.90
15341;DHT22;7770;52.158;5.372;2024-01-15T06:41:15;1.20;99.90
15341;DHT22;7770;52.158;5.372;2024-01-15T06:44:01;1.20;99.90
15341;DHT22;7770;52.158;5.372;2024-01-15T06:46:47;1.20;99.90
15341;DHT22;7770;52.158;5.372;2024-01-15T06:49:33;1.20;99.90
15341;DHT22;7770;52.158;5.372;2024-01-15T06:52:19;1.10;99.90
15341;DHT22;7770;52.158;5.372;2024-01-15T06:55:06;1.00;99.90
15341;DHT22;7770;52.158;5.372;2024-01-15T06:57:52;1.00;99.90
15341;DHT22;7770;52.158;5.372;2024-01-15T07:00:38;1.00;99.90
15341;DHT22;7770;52.158;5.372;2024-01-15T07:03:24;1.00;99.90
15341;DHT22;7770;52.158;5.372;2024-01-15T07:06:11;1.00;99.90
15341;DHT22;7770;52.158;5.372;2024-01-15T07:08:57;1.10;99.90
15341;DHT22;7770;52.158;5.372;2024-01-15T07:11:46;1.10;99.90
15341;DHT22;7770;52.158;5.372;2024-01-15T07:14:32;1.10;99.90
15341;DHT22;7770;52.158;5.372;2024-01-15T07:17:18;1.20;99.90
15341;DHT22;7770;52.158;5.372;2024-01-15T07:20:07;1.20;99.90
15341;DHT22;7770;52.158;5.372;2024-01-15T07:22:54;1.30;99.90
15341;DHT22;7770;52.158;5.372;2024-01-15T07:25:40;1.20;99.90
15341;DHT22;7770;52.158;5.372;2024-01-15T07:28:29;1.20;99.90
15341;DHT22;7770;52.158;5.372;2024-01-15T07:31:17;1.20;99.90
15341;DHT22;7770;52.158;5.372;2024-01-15T07:34:04;1.20;99.90
15341;DHT22;7770;52.158;5.372;2024-01-15T07:36:50;1.20;99.90
15341;DHT22;7770;52.158;5.372;2024-01-15T07:39:36;1.10;99.90
15341;DHT22;7770;52.158;5.372;2024-01-15T07:42:22;1.20;99.90
15341;DHT22;7770;52.158;5.372;2024-01-15T07:45:09;1.20;99.90
15341;DHT22;7770;52.158;5.372;2024-01-15T07:47:56;1.20;99.90
15341;DHT22;7770;52.158;5.372;2024-01-15T07:50:42;1.20;99.90
15341;DHT22;7770;52.158;5.372;2024-01-15T07:53:27;1.20;99.90
15341;DHT22;7770;52.158;5.372;2024-01-15T07:56:14;1.30;99.90
15341;DHT22;7770;52.158;5.372;2024-01-15T07:59:00;1.20;99.90
15341;DHT22;7770;52.158;5.372;2024-01-15T08:01:45;1.20;99.90
15341;DHT22;7770;52.158;5.372;2024-01-15T08:04:33;1.20;99.90
15341;DHT22;7770;52.158;5.372;2024-01-15T08:07:19;1.10;99.90
15341;DHT22;7770;52.158;5.372;2024-01-15T08:10:05;1.20;99.90
15341;DHT22;7770;52.158;5.372;2024-01-15T08:12:51;1.20;99.90
15341;DHT22;7770;52.158;5.372;2024-01-15T08:15:37;1.10;99.90
15341;DHT22;7770;52.158;5.372;2024-01-15T08:18:23;1.10;99.90
15341;DHT22;7770;52.158;5.372;2024-01-15T08:21:09;1.00;99.90
15341;DHT22;7770;52.158;5.372;2024-01-15T08:23:59;1.00;99.90
15341;DHT22;7770;52.158;5.372;2024-01-15T08:26:46;1.00;99.90
15341;DHT22;7770;52.158;5.372;2024-01-15T08:29:32;1.10;99.90
15341;DHT22;7770;52.158;5.372;2024-01-15T08:32:19;1.20;99.90
15341;DHT22;7770;52.158;5.372;2024-01-15T08:35:05;1.20;99.90
15341;DHT22;7770;52.158;5.372;2024-01-15T08:37:54;1.20;99.90
15341;DHT22;7770;52.158;5.372;2024-01-15T08:40:40;1.30;99.90
15341;DHT22;7770;52.158;5.372;2024-01-15T08:43:27;1.20;99.90
15341;DHT22;7770;52.158;5.372;2024-01-15T08:46:13;1.30;99.90
15341;DHT22;7770;52.158;5.372;2024-01-15T08:48:59;1.30;99.90
15341;DHT22;7770;52.158;5.372;2024-01-15T08:51:45;1.40;99.90
15341;DHT22;7770;52.158;5.372;2024-01-15T08:54:31;1.50;99.90
15341;DHT22;7770;52.158;5.372;2024-01-15T08:57:17;1.60;99.90
15341;DHT22;7770;52.158;5.372;2024-01-15T09:00:03;1.60;99.90
15341;DHT22;7770;52.158;5.372;2024-01-15T09:02:54;1.80;99.90
15341;DHT22;7770;52.158;5.372;2024-01-15T09:05:40;1.90;99.90
15341;DHT22;7770;52.158;5.372;2024-01-15T09:08:26;1.90;99.90
15341;DHT22;7770;52.158;5.372;2024-01-15T09:11:13;2.00;99.90
15341;DHT22;7770;52.158;5.372;2024-01-15T09:13:59;2.10;99.90
15341;DHT22;7770;52.158;5.372;2024-01-15T09:16:45;2.00;99.90
15341;DHT22;7770;52.158;5.372;2024-01-15T09:19:32;1.80;99.90
15341;DHT22;7770;52.158;5.372;2024-01-15T09:22:18;1.80;99.90
15341;DHT22;7770;52.158;5.372;2024-01-15T09:25:04;1.80;99.90
15341;DHT22;7770;52.158;5.372;2024-01-15T09:27:50;1.80;99.90
15341;DHT22;7770;52.158;5.372;2024-01-15T09:30:37;1.80;99.90
15341;DHT22;7770;52.158;5.372;2024-01-15T09:33:23;1.70;99.90
15341;DHT22;7770;52.158;5.372;2024-01-15T09:36:09;1.60;99.90
15341;DHT22;7770;52.158;5.372;2024-01-15T09:38:55;2.40;99.90
15341;DHT22;7770;52.158;5.372;2024-01-15T09:41:41;3.10;99.90
15341;DHT22;7770;52.158;5.372;2024-01-15T09:44:28;4.50;99.90
15341;DHT22;7770;52.158;5.372;2024-01-15T09:47:15;4.90;99.90
15341;DHT22;7770;52.158;5.372;2024-01-15T09:50:02;4.40;99.90
15341;DHT22;7770;52.158;5.372;2024-01-15T09:52:49;3.90;99.90
15341;DHT22;7770;52.158;5.372;2024-01-15T09:55:36;3.40;99.90
15341;DHT22;7770;52.158;5.372;2024-01-15T09:58:25;3.10;99.90
15341;DHT22;7770;52.158;5.372;2024-01-15T10:01:11;2.90;99.90
15341;DHT22;7770;52.158;5.372;2024-01-15T10:03:58;2.70;99.90
15341;DHT22;7770;52.158;5.372;2024-01-15T10:06:45;2.90;99.90
15341;DHT22;7770;52.158;5.372;2024-01-15T10:09:31;4.00;99.90
15341;DHT22;7770;52.158;5.372;2024-01-15T10:12:18;5.00;99.90
15341;DHT22;7770;52.158;5.372;2024-01-15T10:15:04;4.70;99.90
15341;DHT22;7770;52.158;5.372;2024-01-15T10:17:50;4.00;99.90
15341;DHT22;7770;52.158;5.372;2024-01-15T10:20:36;3.50;99.90
15341;DHT22;7770;52.158;5.372;2024-01-15T10:23:23;4.00;99.90
15341;DHT22;7770;52.158;5.372;2024-01-15T10:26:10;4.80;99.90
15341;DHT22;7770;52.158;5.372;2024-01-15T10:29:00;4.40;99.90
15341;DHT22;7770;52.158;5.372;2024-01-15T10:31:46;3.80;99.90
15341;DHT22;7770;52.158;5.372;2024-01-15T10:34:32;3.30;99.90
15341;DHT22;7770;52.158;5.372;2024-01-15T10:37:18;2.90;99.90
15341;DHT22;7770;52.158;5.372;2024-01-15T10:40:05;2.70;99.90
15341;DHT22;7770;52.158;5.372;2024-01-15T10:42:51;2.50;99.90
15341;DHT22;7770;52.158;5.372;2024-01-15T10:45:37;2.70;99.90
15341;DHT22;7770;52.158;5.372;2024-01-15T10:48:23;3.80;99.90
15341;DHT22;7770;52.158;5.372;2024-01-15T10:51:10;4.10;99.90
15341;DHT22;7770;52.158;5.372;2024-01-15T10:53:57;4.00;99.90
15341;DHT22;7770;52.158;5.372;2024-01-15T10:56:45;4.40;99.90
15341;DHT22;7770;52.158;5.372;2024-01-15T10:59:32;4.60;99.90
15341;DHT22;7770;52.158;5.372;2024-01-15T11:02:19;4.40;99.90
15341;DHT22;7770;52.158;5.372;2024-01-15T11:05:05;4.10;99.90
15341;DHT22;7770;52.158;5.372;2024-01-15T11:07:55;4.00;99.90
15341;DHT22;7770;52.158;5.372;2024-01-15T11:10:46;3.70;99.90
15341;DHT22;7770;52.158;5.372;2024-01-15T11:16:24;3.30;99.90
15341;DHT22;7770;52.158;5.372;2024-01-15T11:19:12;3.10;99.90
15341;DHT22;7770;52.158;5.372;2024-01-15T11:21:58;3.00;99.90
15341;DHT22;7770;52.158;5.372;2024-01-15T11:24:44;2.80;99.90
15341;DHT22;7770;52.158;5.372;2024-01-15T11:30:33;3.00;99.90
15341;DHT22;7770;52.158;5.372;2024-01-15T11:33:47;3.40;99.90
15341;DHT22;7770;52.158;5.372;2024-01-15T11:39:39;4.90;99.90
15341;DHT22;7770;52.158;5.372;2024-01-15T11:42:28;4.30;99.90
15341;DHT22;7770;52.158;5.372;2024-01-15T11:45:18;4.30;99.90
15341;DHT22;7770;52.158;5.372;2024-01-15T11:48:17;4.50;99.90
15341;DHT22;7770;52.158;5.372;2024-01-15T11:51:03;4.30;99.90
15341;DHT22;7770;52.158;5.372;2024-01-15T11:53:53;4.20;99.90
15341;DHT22;7770;52.158;5.372;2024-01-15T11:56:41;4.40;99.90
15341;DHT22;7770;52.158;5.372;2024-01-15T11:59:27;4.40;99.90
15341;DHT22;7770;52.158;5.372;2024-01-15T12:02:14;4.60;99.90
15341;DHT22;7770;52.158;5.372;2024-01-15T12:05:00;5.30;99.90
15341;DHT22;7770;52.158;5.372;2024-01-15T12:07:48;5.40;99.90
15341;DHT22;7770;52.158;5.372;2024-01-15T12:10:34;5.10;99.90
15341;DHT22;7770;52.158;5.372;2024-01-15T12:13:20;4.80;99.90
15341;DHT22;7770;52.158;5.372;2024-01-15T12:16:06;4.40;99.90
15341;DHT22;7770;52.158;5.372;2024-01-15T12:18:52;4.10;99.90
15341;DHT22;7770;52.158;5.372;2024-01-15T12:21:39;3.80;99.90
15341;DHT22;7770;52.158;5.372;2024-01-15T12:24:25;3.60;99.90
15341;DHT22;7770;52.158;5.372;2024-01-15T12:27:11;3.50;99.90
15341;DHT22;7770;52.158;5.372;2024-01-15T12:29:58;3.40;99.90
15341;DHT22;7770;52.158;5.372;2024-01-15T12:32:45;3.40;99.90
15341;DHT22;7770;52.158;5.372;2024-01-15T12:35:36;3.40;99.90
15341;DHT22;7770;52.158;5.372;2024-01-15T12:38:22;3.20;99.90
15341;DHT22;7770;52.158;5.372;2024-01-15T12:41:08;2.90;99.90
15341;DHT22;7770;52.158;5.372;2024-01-15T12:43:54;2.70;99.90
15341;DHT22;7770;52.158;5.372;2024-01-15T12:46:40;2.40;99.90
15341;DHT22;7770;52.158;5.372;2024-01-15T12:49:26;2.30;99.90
15341;DHT22;7770;52.158;5.372;2024-01-15T12:52:12;2.30;99.90
15341;DHT22;7770;52.158;5.372;2024-01-15T12:54:58;2.30;99.90
15341;DHT22;7770;52.158;5.372;2024-01-15T12:57:44;2.40;99.90
15341;DHT22;7770;52.158;5.372;2024-01-15T13:00:31;2.50;99.90
15341;DHT22;7770;52.158;5.372;2024-01-15T13:03:17;2.60;99.90
15341;DHT22;7770;52.158;5.372;2024-01-15T13:06:04;2.50;99.90
15341;DHT22;7770;52.158;5.372;2024-01-15T13:08:50;2.60;99.90
15341;DHT22;7770;52.158;5.372;2024-01-15T13:11:36;2.50;99.90
15341;DHT22;7770;52.158;5.372;2024-01-15T13:14:22;2.50;99.90
15341;DHT22;7770;52.158;5.372;2024-01-15T13:17:08;2.50;99.90
15341;DHT22;7770;52.158;5.372;2024-01-15T13:19:54;2.50;99.90
15341;DHT22;7770;52.158;5.372;2024-01-15T13:22:40;2.50;99.90
15341;DHT22;7770;52.158;5.372;2024-01-15T13:25:29;2.60;99.90
15341;DHT22;7770;52.158;5.372;2024-01-15T13:28:15;2.70;99.90
15341;DHT22;7770;52.158;5.372;2024-01-15T13:31:01;2.80;99.90
15341;DHT22;7770;52.158;5.372;2024-01-15T13:33:48;2.80;99.90
15341;DHT22;7770;52.158;5.372;2024-01-15T13:36:34;2.90;99.90
15341;DHT22;7770;52.158;5.372;2024-01-15T13:39:20;2.90;99.90
15341;DHT22;7770;52.158;5.372;2024-01-15T13:42:06;2.80;99.90
15341;DHT22;7770;52.158;5.372;2024-01-15T13:44:52;2.80;99.90
15341;DHT22;7770;52.158;5.372;2024-01-15T13:47:38;2.90;99.90
15341;DHT22;7770;52.158;5.372;2024-01-15T13:50:24;3.00;99.90
15341;DHT22;7770;52.158;5.372;2024-01-15T13:53:10;3.00;99.90
15341;DHT22;7770;52.158;5.372;2024-01-15T13:55:56;2.90;99.90
15341;DHT22;7770;52.158;5.372;2024-01-15T13:58:42;2.90;99.90
15341;DHT22;7770;52.158;5.372;2024-01-15T14:01:28;2.90;99.90
15341;DHT22;7770;52.158;5.372;2024-01-15T14:04:14;3.00;99.90
15341;DHT22;7770;52.158;5.372;2024-01-15T14:07:00;3.00;99.90
15341;DHT22;7770;52.158;5.372;2024-01-15T14:09:46;2.90;99.90
15341;DHT22;7770;52.158;5.372;2024-01-15T14:12:33;2.90;99.90
15341;DHT22;7770;52.158;5.372;2024-01-15T14:15:19;2.90;99.90
15341;DHT22;7770;52.158;5.372;2024-01-15T14:18:07;2.90;99.90
15341;DHT22;7770;52.158;5.372;2024-01-15T14:20:53;2.90;99.90
15341;DHT22;7770;52.158;5.372;2024-01-15T14:23:39;2.90;99.90
15341;DHT22;7770;52.158;5.372;2024-01-15T14:26:25;2.90;99.90
15341;DHT22;7770;52.158;5.372;2024-01-15T14:29:11;2.90;99.90
15341;DHT22;7770;52.158;5.372;2024-01-15T14:31:57;2.90;99.90
15341;DHT22;7770;52.158;5.372;2024-01-15T14:34:43;2.90;99.90
15341;DHT22;7770;52.158;5.372;2024-01-15T14:37:29;2.90;99.90
15341;DHT22;7770;52.158;5.372;2024-01-15T14:40:16;3.00;99.90
15341;DHT22;7770;52.158;5.372;2024-01-15T14:43:02;3.10;99.90
15341;DHT22;7770;52.158;5.372;2024-01-15T14:45:49;3.00;99.90
15341;DHT22;7770;52.158;5.372;2024-01-15T14:48:35;2.80;99.90
15341;DHT22;7770;52.158;5.372;2024-01-15T14:51:21;2.70;99.90
15341;DHT22;7770;52.158;5.372;2024-01-15T14:54:07;2.60;99.90
15341;DHT22;7770;52.158;5.372;2024-01-15T14:56:54;2.50;99.90
15341;DHT22;7770;52.158;5.372;2024-01-15T14:59:42;2.60;99.90
15341;DHT22;7770;52.158;5.372;2024-01-15T15:02:28;2.60;99.90
15341;DHT22;7770;52.158;5.372;2024-01-15T15:05:14;2.50;99.90
15341;DHT22;7770;52.158;5.372;2024-01-15T15:08:02;2.50;99.90
15341;DHT22;7770;52.158;5.372;2024-01-15T15:10:54;2.40;99.90
15341;DHT22;7770;52.158;5.372;2024-01-15T15:13:42;2.30;99.90
15341;DHT22;7770;52.158;5.372;2024-01-15T15:16:28;2.20;99.90
15341;DHT22;7770;52.158;5.372;2024-01-15T15:19:14;2.10;99.90
15341;DHT22;7770;52.158;5.372;2024-01-15T15:22:00;2.10;99.90
15341;DHT22;7770;52.158;5.372;2024-01-15T15:24:46;2.00;99.90
15341;DHT22;7770;52.158;5.372;2024-01-15T15:27:32;1.90;99.90
15341;DHT22;7770;52.158;5.372;2024-01-15T15:30:18;1.90;99.90
15341;DHT22;7770;52.158;5.372;2024-01-15T15:33:05;2.10;99.90
15341;DHT22;7770;52.158;5.372;2024-01-15T15:35:51;2.20;99.90
15341;DHT22;7770;52.158;5.372;2024-01-15T15:38:37;2.40;99.90
15341;DHT22;7770;52.158;5.372;2024-01-15T15:41:23;2.50;99.90
15341;DHT22;7770;52.158;5.372;2024-01-15T15:44:11;2.50;99.90
15341;DHT22;7770;52.158;5.372;2024-01-15T15:47:00;2.50;99.90
15341;DHT22;7770;52.158;5.372;2024-01-15T15:49:46;2.50;99.90
15341;DHT22;7770;52.158;5.372;2024-01-15T15:52:32;2.50;99.90
15341;DHT22;7770;52.158;5.372;2024-01-15T15:55:18;2.50;99.90
15341;DHT22;7770;52.158;5.372;2024-01-15T15:58:05;2.50;99.90
15341;DHT22;7770;52.158;5.372;2024-01-15T16:00:51;2.40;99.90
15341;DHT22;7770;52.158;5.372;2024-01-15T16:03:37;2.20;99.90
15341;DHT22;7770;52.158;5.372;2024-01-15T16:06:23;2.20;99.90
15341;DHT22;7770;52.158;5.372;2024-01-15T16:09:09;2.20;99.90
15341;DHT22;7770;52.158;5.372;2024-01-15T16:11:58;2.20;99.90
15341;DHT22;7770;52.158;5.372;2024-01-15T16:14:44;2.20;99.90
15341;DHT22;7770;52.158;5.372;2024-01-15T16:17:30;2.20;99.90
15341;DHT22;7770;52.158;5.372;2024-01-15T16:20:17;2.10;99.90
15341;DHT22;7770;52.158;5.372;2024-01-15T16:23:03;1.90;99.90
15341;DHT22;7770;52.158;5.372;2024-01-15T16:25:49;1.80;99.90
15341;DHT22;7770;52.158;5.372;2024-01-15T16:28:36;1.70;99.90
15341;DHT22;7770;52.158;5.372;2024-01-15T16:31:22;1.60;99.90
15341;DHT22;7770;52.158;5.372;2024-01-15T16:34:08;1.50;99.90
15341;DHT22;7770;52.158;5.372;2024-01-15T16:36:54;1.50;99.90
15341;DHT22;7770;52.158;5.372;2024-01-15T16:39:40;1.50;99.90
15341;DHT22;7770;52.158;5.372;2024-01-15T16:42:26;1.40;99.90
15341;DHT22;7770;52.158;5.372;2024-01-15T16:45:12;1.30;99.90
15341;DHT22;7770;52.158;5.372;2024-01-15T16:47:58;1.30;99.90
15341;DHT22;7770;52.158;5.372;2024-01-15T16:50:44;1.30;99.90
15341;DHT22;7770;52.158;5.372;2024-01-15T16:53:30;1.20;99.90
15341;DHT22;7770;52.158;5.372;2024-01-15T16:56:16;1.20;99.90
15341;DHT22;7770;52.158;5.372;2024-01-15T16:59:02;1.10;99.90
15341;DHT22;7770;52.158;5.372;2024-01-15T17:01:48;1.10;99.90
15341;DHT22;7770;52.158;5.372;2024-01-15T17:04:34;1.10;99.90
15341;DHT22;7770;52.158;5.372;2024-01-15T17:07:20;1.10;99.90
15341;DHT22;7770;52.158;5.372;2024-01-15T17:10:06;1.10;99.90
15341;DHT22;7770;52.158;5.372;2024-01-15T17:12:53;1.10;99.90
15341;DHT22;7770;52.158;5.372;2024-01-15T17:15:39;1.10;99.90
15341;DHT22;7770;52.158;5.372;2024-01-15T17:18:25;1.10;99.90
15341;DHT22;7770;52.158;5.372;2024-01-15T17:21:11;1.20;99.90
15341;DHT22;7770;52.158;5.372;2024-01-15T17:23:58;1.20;99.90
15341;DHT22;7770;52.158;5.372;2024-01-15T17:26:44;1.20;99.90
15341;DHT22;7770;52.158;5.372;2024-01-15T17:29:30;1.30;99.90
15341;DHT22;7770;52.158;5.372;2024-01-15T17:32:16;1.40;99.90
15341;DHT22;7770;52.158;5.372;2024-01-15T17:35:02;1.40;99.90
15341;DHT22;7770;52.158;5.372;2024-01-15T17:37:49;1.50;99.90
15341;DHT22;7770;52.158;5.372;2024-01-15T17:40:35;1.50;99.90
15341;DHT22;7770;52.158;5.372;2024-01-15T17:43:22;1.50;99.90
15341;DHT22;7770;52.158;5.372;2024-01-15T17:46:08;1.50;99.90
15341;DHT22;7770;52.158;5.372;2024-01-15T17:48:54;1.50;99.90
15341;DHT22;7770;52.158;5.372;2024-01-15T17:51:45;1.40;99.90
15341;DHT22;7770;52.158;5.372;2024-01-15T17:54:32;1.40;99.90
15341;DHT22;7770;52.158;5.372;2024-01-15T17:57:18;1.20;99.90
15341;DHT22;7770;52.158;5.372;2024-01-15T18:00:05;1.10;99.90
15341;DHT22;7770;52.158;5.372;2024-01-15T18:02:52;1.10;99.90
15341;DHT22;7770;52.158;5.372;2024-01-15T18:05:41;1.10;99.90
15341;DHT22;7770;52.158;5.372;2024-01-15T18:08:27;1.10;99.90
15341;DHT22;7770;52.158;5.372;2024-01-15T18:11:16;1.10;99.90
15341;DHT22;7770;52.158;5.372;2024-01-15T18:14:04;1.30;99.90
15341;DHT22;7770;52.158;5.372;2024-01-15T18:16:50;1.40;99.90